Time;durP1;ratioP1;P1;durP2;ratioP2;P2;SDS_P1;SDS_P2;PMS_P1;PMS_P2;Temp;Humidity;BMP_temperature;BMP_pressure;BME280_temperature;BME280_humidity;BME280_pressure;Samples;Min_cycle;Max_cycle;Signal;HPM_P1;HPM_P2
2022/10/12 00:01:22;;;;;;;23.38;11.23;;;10.40;99.90;;;;;;4911697;29;20037;-83
2022/10/12 00:03:48;;;;;;;20.90;12.82;;;10.40;99.90;;;;;;4922622;29;20056;-83
2022/10/12 00:06:20;;;;;;;22.75;12.32;;;10.40;99.90;;;;;;4911600;29;20040;-83
2022/10/12 00:08:47;;;;;;;17.40;14.15;;;10.30;99.90;;;;;;4910543;29;20398;-83
2022/10/12 00:11:19;;;;;;;17.48;13.25;;;10.30;99.90;;;;;;4911624;29;20032;-83
2022/10/12 00:13:44;;;;;;;21.65;13.45;;;10.30;99.90;;;;;;4910495;29;20036;-83
2022/10/12 00:16:13;;;;;;;18.05;14.20;;;10.30;99.90;;;;;;4925823;29;20024;-83
2022/10/12 00:18:39;;;;;;;24.23;12.82;;;10.30;99.90;;;;;;4911769;29;20100;-82
2022/10/12 00:21:08;;;;;;;16.23;10.02;;;10.30;99.90;;;;;;4911186;29;20053;-83
2022/10/12 00:23:36;;;;;;;16.83;9.02;;;10.30;99.90;;;;;;4911223;29;20092;-83
2022/10/12 00:26:04;;;;;;;11.48;7.10;;;10.20;99.90;;;;;;4911222;29;20036;-83
2022/10/12 00:28:30;;;;;;;13.80;8.10;;;10.20;99.90;;;;;;4911104;29;20048;-83
2022/10/12 00:30:55;;;;;;;8.50;5.65;;;10.20;99.90;;;;;;4913975;29;20024;-83
2022/10/12 00:33:21;;;;;;;9.23;6.38;;;10.20;99.90;;;;;;4922748;29;20439;-82
2022/10/12 00:35:47;;;;;;;9.10;4.40;;;10.20;99.90;;;;;;4925652;29;20060;-83
2022/10/12 00:38:13;;;;;;;6.82;3.90;;;10.20;99.90;;;;;;4911124;29;20475;-83
2022/10/12 00:40:38;;;;;;;7.32;3.30;;;10.20;99.90;;;;;;4925507;29;20044;-83
2022/10/12 00:43:24;;;;;;;5.88;3.78;;;10.20;99.90;;;;;;4911204;29;20037;-83
2022/10/12 00:45:53;;;;;;;7.60;5.45;;;10.10;99.90;;;;;;4910086;29;20388;-83
2022/10/12 00:48:18;;;;;;;9.73;5.32;;;10.10;99.90;;;;;;4932528;29;20032;-83
2022/10/12 00:50:45;;;;;;;8.43;4.85;;;10.10;99.90;;;;;;4928525;29;20454;-83
2022/10/12 00:53:19;;;;;;;5.65;4.35;;;10.90;99.90;;;;;;4930071;29;20119;-83
2022/10/12 00:56:01;;;;;;;5.25;4.75;;;10.10;99.90;;;;;;4930334;29;20056;-83
2022/10/12 00:58:30;;;;;;;8.10;4.82;;;10.10;99.90;;;;;;4928720;29;20064;-83
2022/10/12 01:01:00;;;;;;;7.03;4.40;;;10.50;99.90;;;;;;4928531;29;20032;-83
2022/10/12 01:03:26;;;;;;;5.85;4.72;;;10.00;99.90;;;;;;4929611;29;20047;-83
2022/10/12 01:05:52;;;;;;;8.48;4.05;;;10.00;99.90;;;;;;4918225;29;20033;-83
2022/10/12 01:08:18;;;;;;;8.48;4.72;;;10.00;99.90;;;;;;4909684;29;20033;-83
2022/10/12 01:10:44;;;;;;;9.75;5.75;;;10.00;99.90;;;;;;4909590;29;20092;-82
2022/10/12 01:13:11;;;;;;;8.88;6.93;;;10.00;99.90;;;;;;4893968;29;20494;-83
2022/10/12 01:15:41;;;;;;;9.52;6.07;;;10.00;99.90;;;;;;4909392;29;20040;-83
2022/10/12 01:18:34;;;;;;;8.15;5.80;;;10.00;99.90;;;;;;4912514;29;20040;-82
2022/10/12 01:21:17;;;;;;;8.05;6.50;;;9.90;99.90;;;;;;4924157;29;20032;-82
2022/10/12 01:24:12;;;;;;;7.75;6.90;;;10.00;99.90;;;;;;4929765;29;20439;-83
2022/10/12 01:27:02;;;;;;;13.10;6.57;;;9.90;99.90;;;;;;4944746;29;20064;-83
2022/10/12 01:30:07;;;;;;;10.63;6.85;;;9.90;99.90;;;;;;4928613;29;20063;-83
2022/10/12 01:32:33;;;;;;;9.88;6.97;;;9.90;99.90;;;;;;4873259;29;20116;-83
2022/10/12 01:35:14;;;;;;;13.70;7.68;;;9.90;99.90;;;;;;4874698;29;20057;-83
2022/10/12 01:38:00;;;;;;;10.73;8.52;;;9.90;99.90;;;;;;4909029;29;20059;-83
2022/10/12 01:40:31;;;;;;;8.82;6.63;;;9.90;99.90;;;;;;4933164;29;20117;-83
2022/10/12 01:42:57;;;;;;;10.15;6.28;;;9.80;99.90;;;;;;4933098;29;20040;-82
2022/10/12 01:45:23;;;;;;;12.77;7.88;;;9.80;99.90;;;;;;4931867;29;20409;-83
2022/10/12 01:47:52;;;;;;;11.15;7.07;;;9.80;99.90;;;;;;4932885;29;20118;-83
2022/10/12 01:50:20;;;;;;;14.05;8.18;;;9.80;99.90;;;;;;4920957;29;20039;-83
2022/10/12 01:52:49;;;;;;;7.18;6.47;;;9.80;99.90;;;;;;4897489;29;20044;-83
2022/10/12 01:55:35;;;;;;;11.73;8.23;;;9.80;99.90;;;;;;4914209;29;20039;-83
2022/10/12 01:58:19;;;;;;;14.60;8.32;;;9.70;99.90;;;;;;4914242;29;20096;-83
2022/10/12 02:01:11;;;;;;;12.77;6.22;;;9.80;99.90;;;;;;4913002;29;20043;-83
2022/10/12 02:03:44;;;;;;;11.95;6.30;;;9.70;99.90;;;;;;4922793;29;20052;-82
2022/10/12 02:06:14;;;;;;;8.70;6.63;;;9.70;99.90;;;;;;4913679;29;20035;-83
2022/10/12 02:09:02;;;;;;;13.57;7.65;;;9.70;99.90;;;;;;4912517;29;20148;-83
2022/10/12 02:11:29;;;;;;;12.90;5.50;;;9.70;99.90;;;;;;4906625;29;20036;-83
2022/10/12 02:13:55;;;;;;;5.63;5.03;;;9.70;99.90;;;;;;4928093;29;20494;-83
2022/10/12 02:16:26;;;;;;;9.90;5.93;;;9.60;99.90;;;;;;4913721;29;20029;-82
2022/10/12 02:18:54;;;;;;;8.55;5.95;;;9.60;99.90;;;;;;4920260;29;20134;-83
2022/10/12 02:21:31;;;;;;;5.97;5.30;;;9.70;99.90;;;;;;4932367;29;20024;-83
2022/10/12 02:24:01;;;;;;;6.95;5.28;;;10.30;99.90;;;;;;4931505;29;20040;-82
2022/10/12 02:26:28;;;;;;;7.78;6.38;;;9.90;99.90;;;;;;4930216;29;20401;-83
2022/10/12 02:28:55;;;;;;;6.30;5.28;;;9.60;99.90;;;;;;4934221;29;20052;-83
2022/10/12 02:31:33;;;;;;;11.65;6.65;;;9.90;99.90;;;;;;4916128;29;20091;-82
2022/10/12 02:34:10;;;;;;;10.32;6.55;;;9.50;99.90;;;;;;4931575;29;20034;-83
2022/10/12 02:36:48;;;;;;;7.72;4.00;;;9.60;99.90;;;;;;4931851;29;20038;-83
2022/10/12 02:39:40;;;;;;;5.32;4.82;;;9.50;99.90;;;;;;4932042;29;20040;-82
2022/10/12 02:42:10;;;;;;;8.48;5.03;;;9.50;99.90;;;;;;4923722;29;20072;-83
2022/10/12 02:44:38;;;;;;;7.93;4.60;;;9.50;99.90;;;;;;4912795;29;20036;-83
2022/10/12 02:47:07;;;;;;;4.65;3.22;;;9.50;99.90;;;;;;4913270;29;20032;-83
2022/10/12 02:49:34;;;;;;;5.07;4.28;;;9.50;99.90;;;;;;4911878;29;20056;-82
2022/10/12 02:52:03;;;;;;;6.50;4.50;;;9.50;99.90;;;;;;4913075;29;20039;-83
2022/10/12 02:54:30;;;;;;;6.88;3.67;;;9.50;99.90;;;;;;4911828;29;20382;-83
2022/10/12 02:56:56;;;;;;;4.60;4.20;;;9.40;99.90;;;;;;4913287;29;20028;-82
2022/10/12 02:59:22;;;;;;;4.10;3.72;;;9.40;99.90;;;;;;4921569;29;20032;-82
2022/10/12 03:01:47;;;;;;;4.68;3.38;;;9.40;99.90;;;;;;4930927;29;20039;-83
2022/10/12 03:04:13;;;;;;;5.60;3.55;;;9.40;99.90;;;;;;4931749;29;20048;-83
2022/10/12 03:06:41;;;;;;;5.05;3.53;;;9.40;99.90;;;;;;4930575;29;20123;-83
2022/10/12 03:09:07;;;;;;;6.55;4.80;;;9.40;99.90;;;;;;4930304;29;20076;-82
2022/10/12 03:11:32;;;;;;;4.15;3.72;;;9.40;99.90;;;;;;4930348;29;20033;-82
2022/10/12 03:13:58;;;;;;;32.85;4.90;;;9.40;99.90;;;;;;4906124;29;20032;-82
2022/10/12 03:16:24;;;;;;;5.43;4.95;;;9.30;99.90;;;;;;4912566;29;20423;-83
2022/10/12 03:18:50;;;;;;;3.78;3.13;;;9.30;99.90;;;;;;4912702;29;20036;-82
2022/10/12 03:21:16;;;;;;;5.22;4.22;;;9.30;99.90;;;;;;4912418;29;20506;-83
2022/10/12 03:23:42;;;;;;;6.88;3.70;;;9.30;99.90;;;;;;4910930;29;20032;-83
2022/10/12 03:26:08;;;;;;;5.18;3.35;;;9.30;99.90;;;;;;4911337;29;20037;-83
2022/10/12 03:28:34;;;;;;;5.85;3.85;;;9.40;99.90;;;;;;4917711;29;20111;-82
2022/10/12 03:31:02;;;;;;;5.20;3.38;;;9.20;99.90;;;;;;4931135;29;20038;-82
2022/10/12 03:33:27;;;;;;;5.70;3.50;;;9.20;99.90;;;;;;4931357;29;20047;-82
2022/10/12 03:35:53;;;;;;;4.30;3.50;;;9.20;99.90;;;;;;4931252;29;20406;-82
2022/10/12 03:38:19;;;;;;;4.43;2.92;;;9.20;99.90;;;;;;4932063;29;20032;-82
2022/10/12 03:40:46;;;;;;;6.30;3.50;;;9.20;99.90;;;;;;4931916;29;20032;-82
2022/10/12 03:43:12;;;;;;;3.60;3.38;;;9.20;99.90;;;;;;4930580;29;20088;-82
2022/10/12 03:45:38;;;;;;;4.20;3.22;;;9.20;99.90;;;;;;4929868;29;20091;-82
2022/10/12 03:48:05;;;;;;;4.82;3.92;;;9.20;99.90;;;;;;4931165;29;20081;-83
2022/10/12 03:50:35;;;;;;;5.75;4.07;;;9.20;99.90;;;;;;4914258;29;20080;-83
2022/10/12 03:53:05;;;;;;;12.63;3.70;;;9.10;99.90;;;;;;4914088;29;20025;-82
2022/10/12 03:55:31;;;;;;;7.97;5.00;;;9.10;99.90;;;;;;4913473;29;20032;-83
2022/10/12 03:57:57;;;;;;;3.85;3.50;;;9.10;99.90;;;;;;4922748;29;20471;-83
2022/10/12 04:00:24;;;;;;;5.53;4.38;;;9.10;99.90;;;;;;4904399;29;20035;-82
2022/10/12 04:02:50;;;;;;;11.88;6.40;;;9.10;99.90;;;;;;4929563;29;20040;-82
2022/10/12 04:05:16;;;;;;;7.13;5.10;;;9.10;99.90;;;;;;4930445;29;20048;-82
2022/10/12 04:07:42;;;;;;;8.88;5.22;;;9.10;99.90;;;;;;4913370;29;20040;-83
2022/10/12 04:10:08;;;;;;;7.35;5.18;;;9.10;99.90;;;;;;4930485;29;20039;-82
2022/10/12 04:12:33;;;;;;;17.92;8.68;;;9.10;99.90;;;;;;4930408;29;20032;-83
2022/10/12 04:15:00;;;;;;;8.38;5.90;;;9.10;99.90;;;;;;4929572;29;20062;-82
2022/10/12 04:17:26;;;;;;;12.55;8.60;;;9.10;99.90;;;;;;4930436;29;20028;-82
2022/10/12 04:19:51;;;;;;;5.90;5.35;;;9.00;99.90;;;;;;4929114;29;20067;-82
2022/10/12 04:22:17;;;;;;;7.65;6.30;;;9.00;99.90;;;;;;4928894;29;20036;-82
2022/10/12 04:24:43;;;;;;;10.25;6.60;;;9.00;99.90;;;;;;4929218;29;20032;-83
2022/10/12 04:27:09;;;;;;;8.00;5.57;;;9.00;99.90;;;;;;4928973;29;20040;-82
2022/10/12 04:29:36;;;;;;;8.65;6.72;;;8.90;99.90;;;;;;4929738;29;20088;-82
2022/10/12 04:32:01;;;;;;;5.93;5.43;;;9.00;99.90;;;;;;4927971;29;20043;-82
2022/10/12 04:34:27;;;;;;;5.97;5.35;;;9.00;99.90;;;;;;4929650;29;20032;-82
2022/10/12 04:36:53;;;;;;;7.32;5.95;;;8.90;99.90;;;;;;4930199;29;20024;-82
2022/10/12 04:39:19;;;;;;;4.50;3.17;;;8.90;99.90;;;;;;4930149;29;20478;-82
2022/10/12 04:41:45;;;;;;;5.07;4.57;;;8.90;99.90;;;;;;4925264;29;20039;-82
2022/10/12 04:44:10;;;;;;;7.60;3.88;;;8.80;99.90;;;;;;4930324;29;20040;-82
2022/10/12 04:46:36;;;;;;;7.32;5.35;;;9.80;99.90;;;;;;4929324;29;20087;-82
2022/10/12 04:49:02;;;;;;;4.90;4.45;;;8.90;99.90;;;;;;4918223;29;20507;-82
2022/10/12 04:51:27;;;;;;;6.80;4.47;;;8.90;99.90;;;;;;4909547;29;20102;-82
2022/10/12 04:53:53;;;;;;;4.60;4.28;;;8.80;99.90;;;;;;4921596;29;20041;-82
2022/10/12 04:56:19;;;;;;;10.25;4.95;;;8.80;99.90;;;;;;4905008;29;20032;-83
2022/10/12 04:58:45;;;;;;;5.75;5.10;;;8.80;99.90;;;;;;4923669;29;20032;-82
2022/10/12 05:01:11;;;;;;;7.25;4.60;;;8.80;99.90;;;;;;4922532;29;20071;-82
2022/10/12 05:03:37;;;;;;;3.45;3.00;;;8.70;99.90;;;;;;4911877;29;20067;-82
2022/10/12 05:06:03;;;;;;;8.15;3.95;;;8.80;99.90;;;;;;4927576;29;20032;-82
2022/10/12 05:08:29;;;;;;;9.52;5.78;;;8.70;99.90;;;;;;4910747;29;20064;-82
2022/10/12 05:10:57;;;;;;;5.93;5.18;;;8.70;99.90;;;;;;4918734;29;20149;-82
2022/10/12 05:13:23;;;;;;;6.22;5.68;;;8.90;99.90;;;;;;4912150;29;20040;-82
2022/10/12 05:15:48;;;;;;;6.10;5.55;;;8.70;99.90;;;;;;4928025;29;20048;-83
2022/10/12 05:18:14;;;;;;;4.20;3.88;;;8.70;99.90;;;;;;4923945;29;20067;-82
2022/10/12 05:20:40;;;;;;;6.40;4.22;;;8.60;99.90;;;;;;4913063;29;20107;-82
2022/10/12 05:23:06;;;;;;;4.20;3.90;;;8.60;99.90;;;;;;4929873;29;20100;-82
2022/10/12 05:25:34;;;;;;;8.52;4.78;;;8.60;99.90;;;;;;4928573;29;20032;-82
2022/10/12 05:28:00;;;;;;;4.28;3.88;;;8.50;99.90;;;;;;4944823;29;20036;-82
2022/10/12 05:30:25;;;;;;;3.53;3.22;;;8.40;99.90;;;;;;4928427;29;20038;-82
2022/10/12 05:32:51;;;;;;;3.72;3.33;;;8.40;99.90;;;;;;4929413;29;20111;-82
2022/10/12 05:35:17;;;;;;;4.40;3.45;;;8.30;99.90;;;;;;4928349;29;20040;-82
2022/10/12 05:37:43;;;;;;;5.07;4.45;;;8.20;99.90;;;;;;4928809;29;20040;-82
2022/10/12 05:40:09;;;;;;;3.67;3.25;;;8.20;99.90;;;;;;4912955;29;20398;-82
2022/10/12 05:42:35;;;;;;;3.78;3.20;;;8.20;99.90;;;;;;4928462;29;20028;-82
2022/10/12 05:45:02;;;;;;;3.00;2.78;;;8.20;99.90;;;;;;4928339;29;20043;-82
2022/10/12 05:47:27;;;;;;;5.03;3.35;;;8.10;99.90;;;;;;4928506;29;20036;-82
2022/10/12 05:49:53;;;;;;;3.70;3.38;;;8.10;99.90;;;;;;4919015;29;20035;-83
2022/10/12 05:52:19;;;;;;;3.65;3.20;;;8.10;99.90;;;;;;4905132;29;20431;-84
2022/10/12 05:54:45;;;;;;;4.95;3.22;;;;;;;;;;4924482;29;20382;-83
2022/10/12 05:57:13;;;;;;;3.95;3.65;;;8.00;99.90;;;;;;4904251;29;20028;-84
2022/10/12 05:59:40;;;;;;;4.15;3.17;;;8.10;99.90;;;;;;4919370;29;20047;-84
2022/10/12 06:02:06;;;;;;;4.40;4.10;;;8.00;99.90;;;;;;4896805;29;20048;-84
2022/10/12 06:04:32;;;;;;;4.90;4.45;;;8.00;99.90;;;;;;4929211;29;20040;-83
2022/10/12 06:06:57;;;;;;;4.65;4.22;;;8.00;99.90;;;;;;4909016;29;20047;-84
2022/10/12 06:09:23;;;;;;;4.40;3.95;;;8.00;99.90;;;;;;4912255;29;20044;-84
2022/10/12 06:11:49;;;;;;;5.95;4.93;;;7.90;99.90;;;;;;4927571;29;20031;-83
2022/10/12 06:14:15;;;;;;;4.22;3.83;;;7.90;99.90;;;;;;4927262;29;20035;-84
2022/10/12 06:16:41;;;;;;;6.53;5.15;;;7.90;99.90;;;;;;4909705;29;20039;-84
2022/10/12 06:19:10;;;;;;;4.90;4.35;;;7.90;99.90;;;;;;4922782;29;20069;-83
2022/10/12 06:21:36;;;;;;;5.88;4.97;;;7.90;99.90;;;;;;4909900;29;20036;-84
2022/10/12 06:24:02;;;;;;;3.90;3.63;;;7.90;99.90;;;;;;4906463;29;20040;-83
2022/10/12 06:26:28;;;;;;;5.20;4.80;;;7.90;99.90;;;;;;4915230;29;20031;-83
2022/10/12 06:28:54;;;;;;;4.78;4.38;;;7.90;99.90;;;;;;4914709;29;20029;-83
2022/10/12 06:31:20;;;;;;;5.18;4.75;;;;;;;;;;4932387;29;20394;-83
2022/10/12 06:33:46;;;;;;;5.75;3.88;;;7.90;99.90;;;;;;4930868;29;20035;-84
2022/10/12 06:36:11;;;;;;;5.03;4.22;;;7.90;99.90;;;;;;4930707;29;20028;-84
2022/10/12 06:38:37;;;;;;;6.63;5.88;;;8.10;99.90;;;;;;4915387;29;20040;-84
2022/10/12 06:41:03;;;;;;;3.42;3.22;;;8.00;99.90;;;;;;4918840;29;20041;-83
2022/10/12 06:43:29;;;;;;;4.20;3.90;;;8.00;99.90;;;;;;4930748;29;20032;-84
2022/10/12 06:46:00;;;;;;;4.97;4.57;;;8.00;99.90;;;;;;4915023;29;20035;-84
2022/10/12 06:48:26;;;;;;;5.20;4.70;;;8.10;99.90;;;;;;4914943;29;20032;-84
2022/10/12 06:50:52;;;;;;;4.47;4.07;;;8.00;99.90;;;;;;4914727;29;20026;-84
2022/10/12 06:53:18;;;;;;;3.85;3.55;;;8.00;99.90;;;;;;4913335;29;20048;-83
2022/10/12 06:55:44;;;;;;;3.25;2.92;;;8.10;99.90;;;;;;4931868;29;20146;-84
2022/10/12 06:58:10;;;;;;;5.32;4.50;;;8.10;99.90;;;;;;4898948;29;20028;-84
2022/10/12 07:00:36;;;;;;;4.57;3.90;;;8.10;99.90;;;;;;4912566;29;20040;-83
2022/10/12 07:03:02;;;;;;;6.47;3.85;;;8.10;99.90;;;;;;4921963;29;20043;-84
2022/10/12 07:05:28;;;;;;;5.30;4.85;;;8.00;99.90;;;;;;4931479;29;20046;-84
2022/10/12 07:07:54;;;;;;;3.90;3.55;;;8.10;99.90;;;;;;4931192;29;20375;-84
2022/10/12 07:10:20;;;;;;;3.72;3.42;;;8.10;99.90;;;;;;4915597;29;20091;-84
2022/10/12 07:12:46;;;;;;;3.63;3.33;;;8.10;99.90;;;;;;4930561;29;20012;-84
2022/10/12 07:15:12;;;;;;;3.22;3.00;;;8.10;99.90;;;;;;4925949;29;20033;-85
2022/10/12 07:17:37;;;;;;;3.90;3.65;;;8.10;99.90;;;;;;4918731;29;20029;-85
2022/10/12 07:20:04;;;;;;;4.55;4.15;;;8.10;99.90;;;;;;4912433;29;20389;-85
2022/10/12 07:22:30;;;;;;;6.55;4.85;;;8.10;99.90;;;;;;4910783;29;20037;-85
2022/10/12 07:24:56;;;;;;;5.30;4.75;;;8.20;99.90;;;;;;4912289;29;20032;-85
2022/10/12 07:27:22;;;;;;;4.25;3.85;;;8.10;99.90;;;;;;4912212;29;20024;-85
2022/10/12 07:29:48;;;;;;;4.22;3.83;;;8.20;99.90;;;;;;4909879;29;20053;-85
2022/10/12 07:32:14;;;;;;;4.63;4.22;;;8.10;99.90;;;;;;4912065;29;20029;-85
2022/10/12 07:34:41;;;;;;;3.90;3.60;;;8.20;99.90;;;;;;4928386;29;20027;-85
2022/10/12 07:37:07;;;;;;;5.00;4.50;;;8.20;99.90;;;;;;4930825;29;20039;-85
2022/10/12 07:39:33;;;;;;;5.05;4.65;;;;;;;;;;4930940;29;20032;-85
2022/10/12 07:41:58;;;;;;;8.32;5.10;;;8.20;99.90;;;;;;4929886;29;20056;-85
2022/10/12 07:44:24;;;;;;;6.60;5.75;;;8.20;99.90;;;;;;4930784;29;20036;-85
2022/10/12 07:46:51;;;;;;;6.43;4.63;;;;;;;;;;4930894;29;20032;-85
2022/10/12 07:49:17;;;;;;;6.60;4.97;;;8.30;99.90;;;;;;4930690;29;20160;-85
2022/10/12 07:51:43;;;;;;;6.25;5.70;;;9.40;99.90;;;;;;4930728;29;20032;-86
2022/10/12 07:54:09;;;;;;;6.15;5.68;;;8.60;99.90;;;;;;4930598;29;20489;-85
2022/10/12 07:56:35;;;;;;;5.90;5.28;;;8.30;99.90;;;;;;4930545;29;20020;-85
2022/10/12 07:59:01;;;;;;;6.75;6.10;;;;;;;;;;4930592;29;20123;-85
2022/10/12 08:01:29;;;;;;;6.28;5.43;;;8.40;99.90;;;;;;4929209;29;20048;-85
2022/10/12 08:03:55;;;;;;;10.07;5.38;;;9.10;99.90;;;;;;4926579;29;20104;-85
2022/10/12 08:06:25;;;;;;;7.43;5.88;;;8.40;99.90;;;;;;4911363;29;20085;-84
2022/10/12 08:08:51;;;;;;;8.43;7.55;;;8.80;99.90;;;;;;4911379;29;20063;-85
2022/10/12 08:11:19;;;;;;;14.30;6.55;;;8.50;99.90;;;;;;4911429;29;20044;-85
2022/10/12 08:13:45;;;;;;;10.10;6.88;;;8.50;99.90;;;;;;4911408;29;20028;-85
2022/10/12 08:16:15;;;;;;;11.90;6.78;;;8.60;99.90;;;;;;4926690;29;20237;-85
2022/10/12 08:18:41;;;;;;;6.78;5.97;;;;;;;;;;4930433;29;20028;-85
2022/10/12 08:21:08;;;;;;;20.20;5.95;;;8.60;99.90;;;;;;4919888;29;20033;-85
2022/10/12 08:23:35;;;;;;;7.50;5.13;;;8.70;99.90;;;;;;4911004;29;20036;-86
2022/10/12 08:26:01;;;;;;;7.15;5.45;;;8.70;99.90;;;;;;4911251;29;20092;-85
2022/10/12 08:28:27;;;;;;;6.95;6.25;;;9.70;99.90;;;;;;4910969;29;20031;-85
2022/10/12 08:30:53;;;;;;;11.70;6.97;;;8.80;99.90;;;;;;4911110;29;20036;-85
2022/10/12 08:33:20;;;;;;;8.68;6.75;;;;;;;;;;4911210;29;20033;-86
2022/10/12 08:35:46;;;;;;;13.40;7.43;;;8.80;99.90;;;;;;4910848;29;20088;-86
2022/10/12 08:38:13;;;;;;;8.60;7.32;;;8.90;99.90;;;;;;4910960;29;20033;-86
2022/10/12 08:41:06;;;;;;;9.13;6.45;;;9.30;99.90;;;;;;4910697;29;20032;-86
2022/10/12 08:44:13;;;;;;;9.38;6.53;;;9.00;99.90;;;;;;4911066;29;20028;-86
2022/10/12 08:46:39;;;;;;;6.95;6.28;;;9.10;99.90;;;;;;4909811;29;20402;-87
2022/10/12 08:49:13;;;;;;;13.55;7.45;;;9.20;99.90;;;;;;4909519;29;20029;-87
2022/10/12 08:51:49;;;;;;;7.10;5.75;;;9.20;99.90;;;;;;4910925;29;20024;-87
2022/10/12 08:54:19;;;;;;;7.25;5.65;;;9.30;99.90;;;;;;4910953;29;20028;-87
2022/10/12 08:56:44;;;;;;;9.95;6.32;;;9.50;99.90;;;;;;4909533;29;20096;-87
2022/10/12 08:59:13;;;;;;;10.98;7.18;;;9.40;99.90;;;;;;4909359;29;20033;-87
2022/10/12 09:02:08;;;;;;;5.28;4.78;;;9.30;99.90;;;;;;4909579;29;20036;-87
2022/10/12 09:04:52;;;;;;;19.52;7.10;;;9.60;99.90;;;;;;4914651;29;20119;-87
2022/10/12 09:07:19;;;;;;;11.43;6.20;;;9.70;99.90;;;;;;4928608;29;20040;-87
2022/10/12 09:09:54;;;;;;;12.65;6.53;;;9.80;99.90;;;;;;4923346;29;20032;-87
2022/10/12 09:12:26;;;;;;;12.68;7.22;;;9.80;99.90;;;;;;4893741;29;20036;-87
2022/10/12 09:14:59;;;;;;;11.05;6.95;;;9.90;99.90;;;;;;4909329;29;20063;-88
2022/10/12 09:17:42;;;;;;;15.45;7.05;;;10.20;99.90;;;;;;4910998;29;20048;-89
2022/10/12 09:20:30;;;;;;;10.63;5.40;;;10.10;99.90;;;;;;4910877;29;20032;-88
2022/10/12 09:23:03;;;;;;;10.48;7.25;;;10.10;99.90;;;;;;4909300;29;20032;-88
2022/10/12 09:25:29;;;;;;;7.22;6.40;;;10.10;99.90;;;;;;4909561;29;20033;-88
2022/10/12 09:28:14;;;;;;;9.02;5.82;;;10.20;99.90;;;;;;4893530;29;20035;-89
2022/10/12 09:30:49;;;;;;;7.78;5.63;;;10.30;99.90;;;;;;4910720;29;20501;-88
2022/10/12 09:33:25;;;;;;;6.07;5.03;;;10.40;99.90;;;;;;4911086;29;20032;-88
2022/10/12 09:35:52;;;;;;;6.13;4.78;;;10.50;99.90;;;;;;4910554;29;20450;-89
2022/10/12 09:38:17;;;;;;;11.10;6.35;;;10.60;99.90;;;;;;4910299;29;20036;-87
2022/10/12 09:40:44;;;;;;;7.85;5.80;;;10.60;99.90;;;;;;4909151;29;20099;-87
2022/10/12 09:43:12;;;;;;;8.15;7.03;;;10.80;99.90;;;;;;4910304;29;20039;-88
2022/10/12 09:45:38;;;;;;;6.50;5.80;;;10.80;99.90;;;;;;4910409;29;20031;-89
2022/10/12 09:48:18;;;;;;;9.05;6.57;;;11.30;99.90;;;;;;4910120;29;20099;-88
2022/10/12 09:50:49;;;;;;;7.63;6.75;;;10.90;99.90;;;;;;4910244;29;20076;-89
2022/10/12 09:53:41;;;;;;;9.18;4.85;;;11.00;99.90;;;;;;4911303;29;20038;-88
2022/10/12 09:56:20;;;;;;;12.10;5.22;;;11.00;99.90;;;;;;4912617;29;20025;-89
2022/10/12 09:59:14;;;;;;;6.93;5.82;;;11.00;99.90;;;;;;4912485;29;20096;-89
2022/10/12 10:01:40;;;;;;;14.85;6.43;;;11.20;99.90;;;;;;4912813;29;20561;-88
2022/10/12 10:04:15;;;;;;;8.38;6.35;;;11.30;99.90;;;;;;4928318;29;20068;-89
2022/10/12 10:06:45;;;;;;;8.05;6.47;;;11.30;99.90;;;;;;4897090;29;20475;-89
2022/10/12 10:09:37;;;;;;;8.05;6.32;;;11.40;99.90;;;;;;4913827;29;20052;-90
2022/10/12 10:12:25;;;;;;;7.05;5.35;;;11.40;99.90;;;;;;4919056;29;20118;-90
2022/10/12 10:14:55;;;;;;;11.77;5.70;;;11.50;99.90;;;;;;4931124;29;20056;-88
2022/10/12 10:17:32;;;;;;;10.32;5.50;;;11.60;99.90;;;;;;4932389;29;20590;-88
2022/10/12 10:20:02;;;;;;;7.18;4.95;;;11.70;99.90;;;;;;4931301;29;20103;-85
2022/10/12 10:22:28;;;;;;;7.53;5.43;;;11.70;99.90;;;;;;4915110;29;20080;-85
2022/10/12 10:24:57;;;;;;;5.15;4.13;;;11.80;99.90;;;;;;4913368;29;20035;-85
2022/10/12 10:27:33;;;;;;;6.30;5.68;;;11.80;99.90;;;;;;4912183;29;20410;-88
2022/10/12 10:30:14;;;;;;;11.48;5.60;;;11.90;99.90;;;;;;4912122;29;20470;-90
2022/10/12 10:32:40;;;;;;;10.65;6.25;;;12.00;99.90;;;;;;4912395;29;20036;-90
2022/10/12 10:35:06;;;;;;;10.98;6.28;;;12.10;99.90;;;;;;4913450;29;20048;-90
2022/10/12 10:37:32;;;;;;;12.23;6.43;;;12.20;99.90;;;;;;4913111;29;20035;-89
2022/10/12 10:39:59;;;;;;;8.02;5.72;;;12.30;99.90;;;;;;4928414;29;20057;-90
2022/10/12 10:42:28;;;;;;;4.13;3.33;;;12.30;99.90;;;;;;4928180;29;20119;-88
2022/10/12 10:45:05;;;;;;;8.60;5.67;;;12.30;99.90;;;;;;4913146;29;20037;-89
2022/10/12 10:47:40;;;;;;;8.85;5.00;;;12.40;99.90;;;;;;4918349;29;20024;-90
2022/10/12 10:50:23;;;;;;;5.25;4.07;;;12.70;99.90;;;;;;4930727;29;20111;-90
2022/10/12 10:52:55;;;;;;;5.15;4.00;;;12.50;99.90;;;;;;4914521;29;20033;-89
2022/10/12 10:55:40;;;;;;;9.38;4.13;;;12.50;99.90;;;;;;4927461;29;20051;-89
2022/10/12 10:58:17;;;;;;;5.90;4.05;;;12.60;99.90;;;;;;4913151;29;20036;-90
2022/10/12 11:00:46;;;;;;;7.30;5.95;;;12.60;99.90;;;;;;4911493;29;20048;-89
2022/10/12 11:03:27;;;;;;;9.25;3.65;;;12.70;99.90;;;;;;4911234;29;20032;-89
2022/10/12 11:06:15;;;;;;;8.38;4.40;;;12.70;99.90;;;;;;4911576;29;20096;-88
2022/10/12 11:08:43;;;;;;;3.58;3.30;;;12.80;99.90;;;;;;4912568;29;20033;-89
2022/10/12 11:11:13;;;;;;;13.55;4.68;;;12.90;99.90;;;;;;4930274;29;20020;-89
2022/10/12 11:14:03;;;;;;;8.38;4.43;;;12.90;99.90;;;;;;4930545;29;20024;-90
2022/10/12 11:16:53;;;;;;;4.40;2.95;;;12.90;99.90;;;;;;4927398;29;20039;-88
2022/10/12 11:19:23;;;;;;;5.00;4.47;;;12.80;99.90;;;;;;4911456;29;20033;-90
2022/10/12 11:21:59;;;;;;;15.48;4.63;;;12.90;99.90;;;;;;4924131;29;20028;-89
2022/10/12 11:25:01;;;;;;;8.20;5.40;;;12.90;99.90;;;;;;4930232;29;20095;-89
2022/10/12 11:27:33;;;;;;;15.02;4.75;;;13.00;99.90;;;;;;4914062;29;20040;-88
2022/10/12 11:30:01;;;;;;;10.88;4.88;;;13.20;99.90;;;;;;4931131;29;20039;-89
2022/10/12 11:32:40;;;;;;;7.80;4.35;;;13.30;99.90;;;;;;4945685;29;20028;-88
2022/10/12 11:35:12;;;;;;;4.25;3.65;;;13.40;99.90;;;;;;4931226;29;20101;-89
2022/10/12 11:37:48;;;;;;;7.35;4.20;;;13.50;99.90;;;;;;4931364;29;20039;-87
2022/10/12 11:40:25;;;;;;;11.52;5.35;;;13.50;99.90;;;;;;4946361;29;20474;-89
2022/10/12 11:42:53;;;;;;;14.68;6.80;;;13.50;99.90;;;;;;4914225;29;20055;-89
2022/10/12 11:45:25;;;;;;;20.05;8.65;;;13.50;99.90;;;;;;4930069;29;20024;-86
2022/10/12 11:48:03;;;;;;;18.85;10.32;;;13.60;99.90;;;;;;4929831;29;20034;-89
2022/10/12 11:50:35;;;;;;;15.55;10.80;;;13.70;99.90;;;;;;4929844;29;20032;-87
2022/10/12 11:53:06;;;;;;;14.45;8.13;;;14.00;99.90;;;;;;4929738;29;20056;-88
2022/10/12 11:55:35;;;;;;;12.38;8.27;;;14.00;99.90;;;;;;4931402;29;20036;-89
2022/10/12 11:58:10;;;;;;;14.07;6.72;;;14.00;99.90;;;;;;4915801;29;20104;-89
2022/10/12 12:01:09;;;;;;;14.40;5.25;;;14.00;99.90;;;;;;4925891;29;20044;-88
2022/10/12 12:03:44;;;;;;;7.65;5.10;;;13.90;99.90;;;;;;4910583;29;20052;-88
2022/10/12 12:06:28;;;;;;;8.48;4.15;;;13.90;99.90;;;;;;4911800;29;20033;-88
2022/10/12 12:08:54;;;;;;;6.95;3.50;;;14.00;99.90;;;;;;4930534;29;20114;-88
2022/10/12 12:11:27;;;;;;;6.95;3.03;;;13.90;99.90;;;;;;4929279;29;20422;-89
2022/10/12 12:14:24;;;;;;;5.07;3.22;;;14.00;99.90;;;;;;4929773;29;20085;-91
2022/10/12 12:17:14;;;;;;;4.22;2.85;;;14.10;99.90;;;;;;4915020;29;20032;-89
2022/10/12 12:19:41;;;;;;;7.28;2.67;;;14.30;99.90;;;;;;4929723;29;20039;-88
2022/10/12 12:22:35;;;;;;;6.07;2.92;;;14.40;99.90;;;;;;4920946;29;20028;-90
2022/10/12 12:25:07;;;;;;;7.38;2.60;;;14.40;99.90;;;;;;4911918;29;20394;-91
2022/10/12 12:27:38;;;;;;;7.60;3.10;;;14.40;99.90;;;;;;4913043;29;20056;-90
2022/10/12 12:30:16;;;;;;;6.05;3.08;;;14.30;99.90;;;;;;4911028;29;20029;-89
2022/10/12 12:32:49;;;;;;;6.05;2.58;;;14.20;99.90;;;;;;4910971;29;20033;-88
2022/10/12 12:35:56;;;;;;;6.05;2.50;;;14.20;99.90;;;;;;4910224;29;20037;-90
2022/10/12 12:38:24;;;;;;;12.85;2.50;;;14.20;99.90;;;;;;4909949;29;20486;-88
2022/10/12 12:41:07;;;;;;;5.00;2.45;;;14.10;99.90;;;;;;4909999;29;20021;-89
2022/10/12 12:43:35;;;;;;;6.88;2.33;;;14.10;99.90;;;;;;4909903;29;20060;-89
2022/10/12 12:46:09;;;;;;;5.63;1.80;;;14.10;99.90;;;;;;4910336;29;20040;-89
2022/10/12 12:48:56;;;;;;;8.00;2.53;;;14.10;99.90;;;;;;4909573;29;20084;-89
2022/10/12 12:51:31;;;;;;;2.72;2.03;;;14.10;99.90;;;;;;4900305;29;20028;-88
2022/10/12 12:54:00;;;;;;;17.88;3.58;;;14.10;99.90;;;;;;4929052;29;20100;-90
2022/10/12 12:57:03;;;;;;;6.27;3.03;;;14.10;99.90;;;;;;4928727;29;20024;-89
2022/10/12 12:59:35;;;;;;;9.48;4.45;;;14.10;99.90;;;;;;4928486;29;20290;-88
2022/10/12 13:02:28;;;;;;;8.10;3.10;;;14.10;99.90;;;;;;4913029;29;20035;-88
2022/10/12 13:05:21;;;;;;;8.88;4.05;;;14.10;99.90;;;;;;4929538;29;20050;-90
2022/10/12 13:08:05;;;;;;;20.40;4.25;;;14.10;99.90;;;;;;4893816;29;20415;-90
2022/10/12 13:10:50;;;;;;;9.40;3.22;;;14.10;99.90;;;;;;4909376;29;20064;-89
2022/10/12 13:14:04;;;;;;;11.30;3.60;;;14.20;99.90;;;;;;4912946;29;20024;-90